sensor_id;sensor_type;location;lat;lon;timestamp;P1;durP1;ratioP1;P2;durP2;ratioP2
18754;SDS011;35061;47.664;9.166;2023-07-13T00:00:39;4.60;;;3.10;;
18754;SDS011;35061;47.664;9.166;2023-07-13T00:03:08;4.25;;;3.12;;
18754;SDS011;35061;47.664;9.166;2023-07-13T00:05:36;5.22;;;3.10;;
18754;SDS011;35061;47.664;9.166;2023-07-13T00:08:04;3.92;;;3.20;;
18754;SDS011;35061;47.664;9.166;2023-07-13T00:10:32;5.07;;;3.10;;
18754;SDS011;35061;47.664;9.166;2023-07-13T00:13:00;5.75;;;2.83;;
18754;SDS011;35061;47.664;9.166;2023-07-13T00:15:29;3.35;;;2.97;;
18754;SDS011;35061;47.664;9.166;2023-07-13T00:17:59;3.83;;;3.15;;
18754;SDS011;35061;47.664;9.166;2023-07-13T00:20:28;4.93;;;2.60;;
18754;SDS011;35061;47.664;9.166;2023-07-13T00:22:56;4.93;;;2.72;;
18754;SDS011;35061;47.664;9.166;2023-07-13T00:25:24;4.57;;;3.08;;
18754;SDS011;35061;47.664;9.166;2023-07-13T00:27:55;4.72;;;2.87;;
18754;SDS011;35061;47.664;9.166;2023-07-13T00:30:26;5.43;;;2.70;;
18754;SDS011;35061;47.664;9.166;2023-07-13T00:32:54;5.05;;;3.30;;
18754;SDS011;35061;47.664;9.166;2023-07-13T00:35:41;4.07;;;3.00;;
18754;SDS011;35061;47.664;9.166;2023-07-13T00:38:11;4.00;;;3.00;;
18754;SDS011;35061;47.664;9.166;2023-07-13T00:40:39;4.72;;;2.80;;
18754;SDS011;35061;47.664;9.166;2023-07-13T00:43:16;4.05;;;3.15;;
18754;SDS011;35061;47.664;9.166;2023-07-13T00:48:19;4.37;;;3.08;;
18754;SDS011;35061;47.664;9.166;2023-07-13T00:50:50;4.87;;;2.95;;
18754;SDS011;35061;47.664;9.166;2023-07-13T00:53:21;3.03;;;2.58;;
18754;SDS011;35061;47.664;9.166;2023-07-13T00:55:50;3.62;;;3.15;;
18754;SDS011;35061;47.664;9.166;2023-07-13T00:58:19;3.10;;;2.70;;
18754;SDS011;35061;47.664;9.166;2023-07-13T01:00:47;4.93;;;3.28;;
18754;SDS011;35061;47.664;9.166;2023-07-13T01:03:16;3.37;;;3.08;;
18754;SDS011;35061;47.664;9.166;2023-07-13T01:05:46;3.22;;;2.67;;
18754;SDS011;35061;47.664;9.166;2023-07-13T01:08:16;3.85;;;2.72;;
18754;SDS011;35061;47.664;9.166;2023-07-13T01:10:51;3.70;;;3.20;;
18754;SDS011;35061;47.664;9.166;2023-07-13T01:13:22;6.35;;;3.08;;
18754;SDS011;35061;47.664;9.166;2023-07-13T01:15:51;3.70;;;2.70;;
18754;SDS011;35061;47.664;9.166;2023-07-13T01:18:24;4.43;;;3.37;;
18754;SDS011;35061;47.664;9.166;2023-07-13T01:21:01;2.92;;;2.62;;
18754;SDS011;35061;47.664;9.166;2023-07-13T01:23:31;3.25;;;2.78;;
18754;SDS011;35061;47.664;9.166;2023-07-13T01:25:59;4.03;;;2.67;;
18754;SDS011;35061;47.664;9.166;2023-07-13T01:28:28;4.07;;;2.85;;
18754;SDS011;35061;47.664;9.166;2023-07-13T01:30:57;3.30;;;2.83;;
18754;SDS011;35061;47.664;9.166;2023-07-13T01:33:26;5.82;;;2.90;;
18754;SDS011;35061;47.664;9.166;2023-07-13T01:35:55;3.75;;;2.85;;
18754;SDS011;35061;47.664;9.166;2023-07-13T01:38:25;3.28;;;2.30;;
18754;SDS011;35061;47.664;9.166;2023-07-13T01:40:53;3.22;;;2.92;;
18754;SDS011;35061;47.664;9.166;2023-07-13T01:43:22;3.92;;;3.10;;
18754;SDS011;35061;47.664;9.166;2023-07-13T01:45:50;3.33;;;2.70;;
18754;SDS011;35061;47.664;9.166;2023-07-13T01:48:18;3.70;;;2.58;;
18754;SDS011;35061;47.664;9.166;2023-07-13T01:50:46;4.53;;;2.75;;
18754;SDS011;35061;47.664;9.166;2023-07-13T01:53:15;3.95;;;2.80;;
18754;SDS011;35061;47.664;9.166;2023-07-13T01:55:43;3.42;;;2.60;;
18754;SDS011;35061;47.664;9.166;2023-07-13T01:58:11;3.10;;;2.78;;
18754;SDS011;35061;47.664;9.166;2023-07-13T02:00:38;3.22;;;2.47;;
18754;SDS011;35061;47.664;9.166;2023-07-13T02:03:06;2.83;;;2.62;;
18754;SDS011;35061;47.664;9.166;2023-07-13T02:05:35;3.70;;;2.53;;
18754;SDS011;35061;47.664;9.166;2023-07-13T02:08:03;2.97;;;2.60;;
18754;SDS011;35061;47.664;9.166;2023-07-13T02:10:31;4.75;;;2.90;;
18754;SDS011;35061;47.664;9.166;2023-07-13T02:12:59;3.47;;;2.87;;
18754;SDS011;35061;47.664;9.166;2023-07-13T02:15:27;3.00;;;2.70;;
18754;SDS011;35061;47.664;9.166;2023-07-13T02:17:55;5.15;;;2.72;;
18754;SDS011;35061;47.664;9.166;2023-07-13T02:20:24;5.10;;;3.33;;
18754;SDS011;35061;47.664;9.166;2023-07-13T02:22:54;4.18;;;2.87;;
18754;SDS011;35061;47.664;9.166;2023-07-13T02:25:22;6.55;;;3.50;;
18754;SDS011;35061;47.664;9.166;2023-07-13T02:27:50;4.78;;;3.15;;
18754;SDS011;35061;47.664;9.166;2023-07-13T02:30:18;6.10;;;3.35;;
18754;SDS011;35061;47.664;9.166;2023-07-13T02:32:46;5.18;;;3.60;;
18754;SDS011;35061;47.664;9.166;2023-07-13T02:35:14;4.68;;;3.22;;
18754;SDS011;35061;47.664;9.166;2023-07-13T02:37:42;3.70;;;3.22;;
18754;SDS011;35061;47.664;9.166;2023-07-13T02:40:10;5.22;;;3.20;;
18754;SDS011;35061;47.664;9.166;2023-07-13T02:42:38;4.07;;;3.35;;
18754;SDS011;35061;47.664;9.166;2023-07-13T02:45:07;5.68;;;3.35;;
18754;SDS011;35061;47.664;9.166;2023-07-13T02:47:36;3.78;;;3.37;;
18754;SDS011;35061;47.664;9.166;2023-07-13T02:50:04;4.60;;;3.17;;
18754;SDS011;35061;47.664;9.166;2023-07-13T02:52:33;4.72;;;3.20;;
18754;SDS011;35061;47.664;9.166;2023-07-13T02:55:01;4.65;;;3.55;;
18754;SDS011;35061;47.664;9.166;2023-07-13T02:57:28;3.60;;;3.22;;
18754;SDS011;35061;47.664;9.166;2023-07-13T02:59:58;3.72;;;2.95;;
18754;SDS011;35061;47.664;9.166;2023-07-13T03:02:27;3.97;;;3.00;;
18754;SDS011;35061;47.664;9.166;2023-07-13T03:04:55;3.53;;;2.70;;
18754;SDS011;35061;47.664;9.166;2023-07-13T03:07:24;3.22;;;2.92;;
18754;SDS011;35061;47.664;9.166;2023-07-13T03:09:56;5.57;;;3.10;;
18754;SDS011;35061;47.664;9.166;2023-07-13T03:12:25;4.43;;;2.65;;
18754;SDS011;35061;47.664;9.166;2023-07-13T03:14:53;3.53;;;2.53;;
18754;SDS011;35061;47.664;9.166;2023-07-13T03:17:21;8.13;;;3.58;;
18754;SDS011;35061;47.664;9.166;2023-07-13T03:19:49;4.18;;;2.72;;
18754;SDS011;35061;47.664;9.166;2023-07-13T03:22:18;4.80;;;2.70;;
18754;SDS011;35061;47.664;9.166;2023-07-13T03:24:46;3.28;;;2.97;;
18754;SDS011;35061;47.664;9.166;2023-07-13T03:27:16;4.22;;;2.60;;
18754;SDS011;35061;47.664;9.166;2023-07-13T03:29:44;4.87;;;3.45;;
18754;SDS011;35061;47.664;9.166;2023-07-13T03:32:12;2.75;;;2.50;;
18754;SDS011;35061;47.664;9.166;2023-07-13T03:34:40;2.97;;;2.53;;
18754;SDS011;35061;47.664;9.166;2023-07-13T03:37:08;4.57;;;2.55;;
18754;SDS011;35061;47.664;9.166;2023-07-13T03:39:36;3.37;;;2.78;;
18754;SDS011;35061;47.664;9.166;2023-07-13T03:42:04;3.78;;;2.65;;
18754;SDS011;35061;47.664;9.166;2023-07-13T03:44:33;3.47;;;2.90;;
18754;SDS011;35061;47.664;9.166;2023-07-13T03:47:01;6.35;;;2.92;;
18754;SDS011;35061;47.664;9.166;2023-07-13T03:49:29;4.10;;;2.95;;
18754;SDS011;35061;47.664;9.166;2023-07-13T03:51:57;3.40;;;2.92;;
18754;SDS011;35061;47.664;9.166;2023-07-13T03:54:25;3.30;;;2.72;;
18754;SDS011;35061;47.664;9.166;2023-07-13T03:56:53;3.53;;;2.55;;
18754;SDS011;35061;47.664;9.166;2023-07-13T03:59:21;3.00;;;2.70;;
18754;SDS011;35061;47.664;9.166;2023-07-13T04:01:49;3.08;;;2.67;;
18754;SDS011;35061;47.664;9.166;2023-07-13T04:04:17;4.78;;;2.83;;
18754;SDS011;35061;47.664;9.166;2023-07-13T04:06:45;3.62;;;2.65;;
18754;SDS011;35061;47.664;9.166;2023-07-13T04:09:13;6.00;;;2.70;;
18754;SDS011;35061;47.664;9.166;2023-07-13T04:11:41;4.53;;;2.62;;
18754;SDS011;35061;47.664;9.166;2023-07-13T04:14:09;4.05;;;2.95;;
18754;SDS011;35061;47.664;9.166;2023-07-13T04:16:37;4.82;;;2.95;;
18754;SDS011;35061;47.664;9.166;2023-07-13T04:19:05;4.78;;;3.05;;
18754;SDS011;35061;47.664;9.166;2023-07-13T04:21:33;4.70;;;2.83;;
18754;SDS011;35061;47.664;9.166;2023-07-13T04:24:01;5.00;;;2.85;;
18754;SDS011;35061;47.664;9.166;2023-07-13T04:26:30;4.97;;;2.65;;
18754;SDS011;35061;47.664;9.166;2023-07-13T04:28:58;3.72;;;2.80;;
18754;SDS011;35061;47.664;9.166;2023-07-13T04:31:26;3.87;;;2.90;;
18754;SDS011;35061;47.664;9.166;2023-07-13T04:33:54;4.70;;;3.05;;
18754;SDS011;35061;47.664;9.166;2023-07-13T04:36:22;3.97;;;2.50;;
18754;SDS011;35061;47.664;9.166;2023-07-13T04:38:50;3.62;;;2.90;;
18754;SDS011;35061;47.664;9.166;2023-07-13T04:41:18;3.47;;;2.95;;
18754;SDS011;35061;47.664;9.166;2023-07-13T04:43:46;3.40;;;3.10;;
18754;SDS011;35061;47.664;9.166;2023-07-13T04:46:15;3.40;;;2.90;;
18754;SDS011;35061;47.664;9.166;2023-07-13T04:48:46;2.75;;;2.55;;
18754;SDS011;35061;47.664;9.166;2023-07-13T04:51:14;3.25;;;2.70;;
18754;SDS011;35061;47.664;9.166;2023-07-13T04:53:42;3.40;;;2.55;;
18754;SDS011;35061;47.664;9.166;2023-07-13T04:56:10;3.40;;;2.62;;
18754;SDS011;35061;47.664;9.166;2023-07-13T04:58:39;4.35;;;2.58;;
18754;SDS011;35061;47.664;9.166;2023-07-13T05:01:07;3.55;;;2.58;;
18754;SDS011;35061;47.664;9.166;2023-07-13T05:03:38;5.60;;;2.95;;
18754;SDS011;35061;47.664;9.166;2023-07-13T05:06:07;4.65;;;3.22;;
18754;SDS011;35061;47.664;9.166;2023-07-13T05:08:37;5.45;;;2.85;;
18754;SDS011;35061;47.664;9.166;2023-07-13T05:11:05;4.25;;;2.83;;
18754;SDS011;35061;47.664;9.166;2023-07-13T05:13:37;3.80;;;2.70;;
18754;SDS011;35061;47.664;9.166;2023-07-13T05:16:05;3.33;;;2.55;;
18754;SDS011;35061;47.664;9.166;2023-07-13T05:18:35;4.03;;;3.20;;
18754;SDS011;35061;47.664;9.166;2023-07-13T05:21:09;3.97;;;2.80;;
18754;SDS011;35061;47.664;9.166;2023-07-13T05:23:38;3.03;;;2.65;;
18754;SDS011;35061;47.664;9.166;2023-07-13T05:26:12;3.30;;;2.60;;
18754;SDS011;35061;47.664;9.166;2023-07-13T05:28:43;3.90;;;3.05;;
18754;SDS011;35061;47.664;9.166;2023-07-13T05:31:10;4.70;;;2.97;;
18754;SDS011;35061;47.664;9.166;2023-07-13T05:33:41;4.40;;;3.20;;
18754;SDS011;35061;47.664;9.166;2023-07-13T05:36:09;4.00;;;3.00;;
18754;SDS011;35061;47.664;9.166;2023-07-13T05:38:37;3.65;;;2.90;;
18754;SDS011;35061;47.664;9.166;2023-07-13T05:41:11;3.47;;;3.03;;
18754;SDS011;35061;47.664;9.166;2023-07-13T05:43:42;3.33;;;2.75;;
18754;SDS011;35061;47.664;9.166;2023-07-13T05:46:09;5.72;;;3.60;;
18754;SDS011;35061;47.664;9.166;2023-07-13T05:48:37;3.17;;;2.65;;
18754;SDS011;35061;47.664;9.166;2023-07-13T05:51:06;4.95;;;2.92;;
18754;SDS011;35061;47.664;9.166;2023-07-13T05:53:34;5.55;;;3.15;;
18754;SDS011;35061;47.664;9.166;2023-07-13T05:56:03;3.53;;;3.22;;
18754;SDS011;35061;47.664;9.166;2023-07-13T05:58:31;5.05;;;3.20;;
18754;SDS011;35061;47.664;9.166;2023-07-13T06:01:00;3.30;;;3.00;;
18754;SDS011;35061;47.664;9.166;2023-07-13T06:03:33;3.78;;;2.95;;
18754;SDS011;35061;47.664;9.166;2023-07-13T06:06:02;7.10;;;3.03;;
18754;SDS011;35061;47.664;9.166;2023-07-13T06:08:30;4.20;;;2.80;;
18754;SDS011;35061;47.664;9.166;2023-07-13T06:11:02;4.55;;;2.95;;
18754;SDS011;35061;47.664;9.166;2023-07-13T06:13:31;3.45;;;3.15;;
18754;SDS011;35061;47.664;9.166;2023-07-13T06:16:01;3.40;;;2.87;;
18754;SDS011;35061;47.664;9.166;2023-07-13T06:18:32;4.05;;;2.83;;
18754;SDS011;35061;47.664;9.166;2023-07-13T06:21:05;4.65;;;2.75;;
18754;SDS011;35061;47.664;9.166;2023-07-13T06:23:35;4.05;;;2.75;;
18754;SDS011;35061;47.664;9.166;2023-07-13T06:26:03;5.40;;;3.40;;
18754;SDS011;35061;47.664;9.166;2023-07-13T06:28:32;5.03;;;2.80;;
18754;SDS011;35061;47.664;9.166;2023-07-13T06:31:01;3.12;;;2.78;;
18754;SDS011;35061;47.664;9.166;2023-07-13T06:33:29;5.80;;;3.05;;
18754;SDS011;35061;47.664;9.166;2023-07-13T06:35:57;5.12;;;3.08;;
18754;SDS011;35061;47.664;9.166;2023-07-13T06:38:25;3.67;;;2.95;;
18754;SDS011;35061;47.664;9.166;2023-07-13T06:40:53;4.35;;;3.20;;
18754;SDS011;35061;47.664;9.166;2023-07-13T06:43:21;3.30;;;2.50;;
18754;SDS011;35061;47.664;9.166;2023-07-13T06:45:49;3.58;;;2.40;;
18754;SDS011;35061;47.664;9.166;2023-07-13T06:48:19;3.45;;;2.53;;
18754;SDS011;35061;47.664;9.166;2023-07-13T06:50:48;3.97;;;2.22;;
18754;SDS011;35061;47.664;9.166;2023-07-13T06:53:17;4.95;;;3.12;;
18754;SDS011;35061;47.664;9.166;2023-07-13T06:55:47;3.62;;;3.15;;
18754;SDS011;35061;47.664;9.166;2023-07-13T06:58:16;4.87;;;2.97;;
18754;SDS011;35061;47.664;9.166;2023-07-13T07:00:45;3.03;;;2.70;;
18754;SDS011;35061;47.664;9.166;2023-07-13T07:03:14;4.45;;;2.55;;
18754;SDS011;35061;47.664;9.166;2023-07-13T07:05:42;4.70;;;2.55;;
18754;SDS011;35061;47.664;9.166;2023-07-13T07:08:10;3.97;;;2.33;;
18754;SDS011;35061;47.664;9.166;2023-07-13T07:10:38;5.30;;;2.28;;
18754;SDS011;35061;47.664;9.166;2023-07-13T07:13:06;3.83;;;2.17;;
18754;SDS011;35061;47.664;9.166;2023-07-13T07:15:34;4.75;;;2.67;;
18754;SDS011;35061;47.664;9.166;2023-07-13T07:18:03;7.07;;;3.05;;
18754;SDS011;35061;47.664;9.166;2023-07-13T07:20:31;3.83;;;2.55;;
18754;SDS011;35061;47.664;9.166;2023-07-13T07:23:00;3.78;;;2.70;;
18754;SDS011;35061;47.664;9.166;2023-07-13T07:25:28;7.80;;;2.97;;
18754;SDS011;35061;47.664;9.166;2023-07-13T07:27:59;3.72;;;3.05;;
18754;SDS011;35061;47.664;9.166;2023-07-13T07:30:30;3.62;;;2.78;;
18754;SDS011;35061;47.664;9.166;2023-07-13T07:33:01;7.35;;;2.90;;
18754;SDS011;35061;47.664;9.166;2023-07-13T07:35:31;4.15;;;2.80;;
18754;SDS011;35061;47.664;9.166;2023-07-13T07:38:05;5.28;;;2.65;;
18754;SDS011;35061;47.664;9.166;2023-07-13T07:40:39;5.60;;;3.00;;
18754;SDS011;35061;47.664;9.166;2023-07-13T07:43:11;3.80;;;2.97;;
18754;SDS011;35061;47.664;9.166;2023-07-13T07:45:40;3.42;;;2.75;;
18754;SDS011;35061;47.664;9.166;2023-07-13T07:48:08;3.80;;;2.40;;
18754;SDS011;35061;47.664;9.166;2023-07-13T07:50:37;4.53;;;3.40;;
18754;SDS011;35061;47.664;9.166;2023-07-13T07:53:06;5.47;;;3.25;;
18754;SDS011;35061;47.664;9.166;2023-07-13T07:55:35;7.32;;;3.10;;
18754;SDS011;35061;47.664;9.166;2023-07-13T07:58:06;5.43;;;2.87;;
18754;SDS011;35061;47.664;9.166;2023-07-13T08:01:01;3.10;;;2.60;;
18754;SDS011;35061;47.664;9.166;2023-07-13T08:03:36;3.10;;;2.40;;
18754;SDS011;35061;47.664;9.166;2023-07-13T08:06:07;4.00;;;2.10;;
18754;SDS011;35061;47.664;9.166;2023-07-13T08:08:38;4.70;;;2.53;;
18754;SDS011;35061;47.664;9.166;2023-07-13T08:11:07;3.17;;;2.10;;
18754;SDS011;35061;47.664;9.166;2023-07-13T08:13:38;2.97;;;2.10;;
18754;SDS011;35061;47.664;9.166;2023-07-13T08:16:06;3.50;;;2.05;;
18754;SDS011;35061;47.664;9.166;2023-07-13T08:18:35;3.20;;;2.60;;
18754;SDS011;35061;47.664;9.166;2023-07-13T08:21:06;3.42;;;2.58;;
18754;SDS011;35061;47.664;9.166;2023-07-13T08:23:36;6.12;;;2.70;;
18754;SDS011;35061;47.664;9.166;2023-07-13T08:26:04;8.57;;;3.03;;
18754;SDS011;35061;47.664;9.166;2023-07-13T08:28:32;3.72;;;2.33;;
18754;SDS011;35061;47.664;9.166;2023-07-13T08:31:02;4.12;;;2.50;;
18754;SDS011;35061;47.664;9.166;2023-07-13T08:33:31;4.30;;;2.33;;
18754;SDS011;35061;47.664;9.166;2023-07-13T08:35:59;4.18;;;2.10;;
18754;SDS011;35061;47.664;9.166;2023-07-13T08:38:27;5.03;;;2.20;;
18754;SDS011;35061;47.664;9.166;2023-07-13T08:40:55;3.35;;;1.98;;
18754;SDS011;35061;47.664;9.166;2023-07-13T08:43:30;3.55;;;1.90;;
18754;SDS011;35061;47.664;9.166;2023-07-13T08:46:12;3.70;;;2.45;;
18754;SDS011;35061;47.664;9.166;2023-07-13T08:48:42;3.62;;;2.67;;
18754;SDS011;35061;47.664;9.166;2023-07-13T08:54:05;4.03;;;2.30;;
18754;SDS011;35061;47.664;9.166;2023-07-13T08:56:45;3.35;;;2.50;;
18754;SDS011;35061;47.664;9.166;2023-07-13T08:59:17;4.00;;;2.50;;
18754;SDS011;35061;47.664;9.166;2023-07-13T09:04:35;3.40;;;1.80;;
18754;SDS011;35061;47.664;9.166;2023-07-13T09:07:39;2.50;;;1.55;;
18754;SDS011;35061;47.664;9.166;2023-07-13T09:15:53;1.50;;;1.05;;
18754;SDS011;35061;47.664;9.166;2023-07-13T09:18:43;3.33;;;1.45;;
18754;SDS011;35061;47.664;9.166;2023-07-13T09:21:15;4.03;;;1.75;;
18754;SDS011;35061;47.664;9.166;2023-07-13T09:27:12;3.15;;;1.70;;
18754;SDS011;35061;47.664;9.166;2023-07-13T09:29:50;3.37;;;1.70;;
18754;SDS011;35061;47.664;9.166;2023-07-13T09:32:28;2.42;;;1.95;;
18754;SDS011;35061;47.664;9.166;2023-07-13T09:34:56;3.35;;;1.90;;
18754;SDS011;35061;47.664;9.166;2023-07-13T09:37:27;2.37;;;1.70;;
18754;SDS011;35061;47.664;9.166;2023-07-13T09:39:58;3.65;;;2.00;;
18754;SDS011;35061;47.664;9.166;2023-07-13T09:42:28;3.25;;;2.03;;
18754;SDS011;35061;47.664;9.166;2023-07-13T09:44:58;3.75;;;2.00;;
18754;SDS011;35061;47.664;9.166;2023-07-13T09:47:31;2.83;;;1.67;;
18754;SDS011;35061;47.664;9.166;2023-07-13T09:50:02;3.78;;;1.73;;
18754;SDS011;35061;47.664;9.166;2023-07-13T09:52:41;3.20;;;2.00;;
18754;SDS011;35061;47.664;9.166;2023-07-13T09:58:12;2.58;;;1.90;;
18754;SDS011;35061;47.664;9.166;2023-07-13T10:00:43;3.05;;;1.75;;
18754;SDS011;35061;47.664;9.166;2023-07-13T10:03:24;3.90;;;1.98;;
18754;SDS011;35061;47.664;9.166;2023-07-13T10:05:54;2.92;;;1.77;;
18754;SDS011;35061;47.664;9.166;2023-07-13T10:08:38;2.87;;;1.50;;
18754;SDS011;35061;47.664;9.166;2023-07-13T10:11:15;2.72;;;1.77;;
18754;SDS011;35061;47.664;9.166;2023-07-13T10:13:53;2.05;;;1.52;;
18754;SDS011;35061;47.664;9.166;2023-07-13T10:16:28;2.50;;;1.90;;
18754;SDS011;35061;47.664;9.166;2023-07-13T10:19:02;1.85;;;1.75;;
18754;SDS011;35061;47.664;9.166;2023-07-13T10:21:57;2.80;;;1.90;;
18754;SDS011;35061;47.664;9.166;2023-07-13T10:24:23;2.53;;;1.50;;
18754;SDS011;35061;47.664;9.166;2023-07-13T10:27:00;3.12;;;1.40;;
18754;SDS011;35061;47.664;9.166;2023-07-13T10:29:36;2.53;;;1.30;;
18754;SDS011;35061;47.664;9.166;2023-07-13T10:32:09;2.60;;;1.45;;
18754;SDS011;35061;47.664;9.166;2023-07-13T10:34:40;1.98;;;1.30;;
18754;SDS011;35061;47.664;9.166;2023-07-13T10:37:36;1.52;;;1.42;;
18754;SDS011;35061;47.664;9.166;2023-07-13T10:40:20;2.15;;;1.40;;
18754;SDS011;35061;47.664;9.166;2023-07-13T10:42:54;2.25;;;1.70;;
18754;SDS011;35061;47.664;9.166;2023-07-13T10:45:26;2.17;;;1.67;;
18754;SDS011;35061;47.664;9.166;2023-07-13T10:47:58;2.72;;;1.58;;
18754;SDS011;35061;47.664;9.166;2023-07-13T10:50:27;1.80;;;1.52;;
18754;SDS011;35061;47.664;9.166;2023-07-13T10:53:03;4.43;;;2.03;;
18754;SDS011;35061;47.664;9.166;2023-07-13T10:58:19;2.42;;;2.03;;
18754;SDS011;35061;47.664;9.166;2023-07-13T11:03:22;2.40;;;2.00;;
18754;SDS011;35061;47.664;9.166;2023-07-13T11:05:51;4.05;;;1.70;;
18754;SDS011;35061;47.664;9.166;2023-07-13T11:08:37;3.87;;;2.00;;
18754;SDS011;35061;47.664;9.166;2023-07-13T11:18:53;2.10;;;1.90;;
18754;SDS011;35061;47.664;9.166;2023-07-13T11:22:01;2.12;;;1.92;;
18754;SDS011;35061;47.664;9.166;2023-07-13T11:27:35;3.97;;;2.37;;
18754;SDS011;35061;47.664;9.166;2023-07-13T11:32:43;4.12;;;2.00;;
18754;SDS011;35061;47.664;9.166;2023-07-13T11:35:16;2.20;;;1.80;;
18754;SDS011;35061;47.664;9.166;2023-07-13T11:37:51;2.40;;;1.95;;
18754;SDS011;35061;47.664;9.166;2023-07-13T11:40:21;3.95;;;2.03;;
18754;SDS011;35061;47.664;9.166;2023-07-13T11:42:58;3.45;;;2.35;;
18754;SDS011;35061;47.664;9.166;2023-07-13T11:45:28;2.55;;;1.90;;
18754;SDS011;35061;47.664;9.166;2023-07-13T11:50:55;3.83;;;2.35;;
18754;SDS011;35061;47.664;9.166;2023-07-13T11:53:27;2.17;;;1.90;;
18754;SDS011;35061;47.664;9.166;2023-07-13T11:55:57;2.17;;;1.87;;
18754;SDS011;35061;47.664;9.166;2023-07-13T11:58:25;2.70;;;1.75;;
18754;SDS011;35061;47.664;9.166;2023-07-13T12:00:57;3.08;;;2.25;;
18754;SDS011;35061;47.664;9.166;2023-07-13T12:03:28;3.20;;;1.87;;
18754;SDS011;35061;47.664;9.166;2023-07-13T12:05:58;4.22;;;1.87;;
18754;SDS011;35061;47.664;9.166;2023-07-13T12:08:29;2.83;;;1.90;;
18754;SDS011;35061;47.664;9.166;2023-07-13T12:10:59;5.12;;;2.10;;
18754;SDS011;35061;47.664;9.166;2023-07-13T12:13:36;3.15;;;2.00;;
18754;SDS011;35061;47.664;9.166;2023-07-13T12:16:10;4.03;;;2.17;;
18754;SDS011;35061;47.664;9.166;2023-07-13T12:18:43;3.03;;;1.90;;
18754;SDS011;35061;47.664;9.166;2023-07-13T12:21:16;3.25;;;1.80;;
18754;SDS011;35061;47.664;9.166;2023-07-13T12:23:47;3.40;;;2.22;;
18754;SDS011;35061;47.664;9.166;2023-07-13T12:26:16;2.78;;;1.95;;
18754;SDS011;35061;47.664;9.166;2023-07-13T12:28:51;6.93;;;2.15;;
18754;SDS011;35061;47.664;9.166;2023-07-13T12:31:25;3.00;;;1.83;;
18754;SDS011;35061;47.664;9.166;2023-07-13T12:34:08;3.47;;;1.98;;
18754;SDS011;35061;47.664;9.166;2023-07-13T12:36:52;2.83;;;1.80;;
18754;SDS011;35061;47.664;9.166;2023-07-13T12:39:23;2.00;;;1.67;;
18754;SDS011;35061;47.664;9.166;2023-07-13T12:42:09;2.20;;;1.98;;
18754;SDS011;35061;47.664;9.166;2023-07-13T12:47:28;3.83;;;1.95;;
18754;SDS011;35061;47.664;9.166;2023-07-13T12:49:57;2.60;;;2.08;;
18754;SDS011;35061;47.664;9.166;2023-07-13T12:52:31;2.72;;;1.85;;
18754;SDS011;35061;47.664;9.166;2023-07-13T12:55:07;1.98;;;1.50;;
18754;SDS011;35061;47.664;9.166;2023-07-13T12:57:49;2.87;;;1.80;;
18754;SDS011;35061;47.664;9.166;2023-07-13T13:00:24;3.87;;;2.25;;
18754;SDS011;35061;47.664;9.166;2023-07-13T13:02:56;2.40;;;1.73;;
18754;SDS011;35061;47.664;9.166;2023-07-13T13:05:28;2.03;;;1.80;;
18754;SDS011;35061;47.664;9.166;2023-07-13T13:07:57;2.10;;;1.60;;
18754;SDS011;35061;47.664;9.166;2023-07-13T13:10:25;2.05;;;1.85;;
18754;SDS011;35061;47.664;9.166;2023-07-13T13:12:54;1.80;;;1.62;;
18754;SDS011;35061;47.664;9.166;2023-07-13T13:15:22;2.30;;;1.80;;
18754;SDS011;35061;47.664;9.166;2023-07-13T13:17:51;2.78;;;1.98;;
18754;SDS011;35061;47.664;9.166;2023-07-13T13:20:20;2.50;;;1.95;;
18754;SDS011;35061;47.664;9.166;2023-07-13T13:22:49;5.03;;;2.28;;
18754;SDS011;35061;47.664;9.166;2023-07-13T13:25:17;2.25;;;1.70;;
18754;SDS011;35061;47.664;9.166;2023-07-13T13:27:45;2.35;;;1.70;;
18754;SDS011;35061;47.664;9.166;2023-07-13T13:30:14;3.15;;;1.60;;
18754;SDS011;35061;47.664;9.166;2023-07-13T13:32:45;1.95;;;1.75;;
18754;SDS011;35061;47.664;9.166;2023-07-13T13:35:15;2.22;;;1.65;;
18754;SDS011;35061;47.664;9.166;2023-07-13T13:37:45;2.53;;;2.22;;
18754;SDS011;35061;47.664;9.166;2023-07-13T13:40:19;1.85;;;1.62;;
18754;SDS011;35061;47.664;9.166;2023-07-13T13:42:50;1.73;;;1.60;;
18754;SDS011;35061;47.664;9.166;2023-07-13T13:45:20;2.65;;;1.95;;
18754;SDS011;35061;47.664;9.166;2023-07-13T13:47:48;2.08;;;1.80;;
18754;SDS011;35061;47.664;9.166;2023-07-13T13:50:18;3.42;;;1.95;;
18754;SDS011;35061;47.664;9.166;2023-07-13T13:52:50;2.40;;;1.80;;
18754;SDS011;35061;47.664;9.166;2023-07-13T13:55:19;1.85;;;1.70;;
18754;SDS011;35061;47.664;9.166;2023-07-13T13:57:48;2.28;;;1.80;;
18754;SDS011;35061;47.664;9.166;2023-07-13T14:00:17;2.65;;;1.92;;
18754;SDS011;35061;47.664;9.166;2023-07-13T14:02:46;2.40;;;1.83;;
18754;SDS011;35061;47.664;9.166;2023-07-13T14:05:16;2.58;;;1.55;;
18754;SDS011;35061;47.664;9.166;2023-07-13T14:07:49;1.80;;;1.70;;
18754;SDS011;35061;47.664;9.166;2023-07-13T14:10:18;1.65;;;1.55;;
18754;SDS011;35061;47.664;9.166;2023-07-13T14:12:48;2.50;;;2.25;;
18754;SDS011;35061;47.664;9.166;2023-07-13T14:15:21;1.65;;;1.55;;
18754;SDS011;35061;47.664;9.166;2023-07-13T14:17:51;1.92;;;1.73;;
18754;SDS011;35061;47.664;9.166;2023-07-13T14:20:20;3.20;;;2.10;;
18754;SDS011;35061;47.664;9.166;2023-07-13T14:22:52;2.83;;;1.75;;
18754;SDS011;35061;47.664;9.166;2023-07-13T14:25:20;2.25;;;1.85;;
18754;SDS011;35061;47.664;9.166;2023-07-13T14:27:49;1.70;;;1.60;;
18754;SDS011;35061;47.664;9.166;2023-07-13T14:30:23;2.67;;;1.90;;
18754;SDS011;35061;47.664;9.166;2023-07-13T14:32:51;1.92;;;1.83;;
18754;SDS011;35061;47.664;9.166;2023-07-13T14:35:21;2.08;;;1.90;;
18754;SDS011;35061;47.664;9.166;2023-07-13T14:37:51;2.53;;;1.92;;
18754;SDS011;35061;47.664;9.166;2023-07-13T14:40:21;2.47;;;1.85;;
18754;SDS011;35061;47.664;9.166;2023-07-13T14:42:58;3.17;;;2.00;;
18754;SDS011;35061;47.664;9.166;2023-07-13T14:45:26;3.22;;;1.98;;
18754;SDS011;35061;47.664;9.166;2023-07-13T14:47:54;2.00;;;1.85;;
18754;SDS011;35061;47.664;9.166;2023-07-13T14:50:31;2.22;;;2.03;;
18754;SDS011;35061;47.664;9.166;2023-07-13T14:53:00;2.10;;;1.58;;
18754;SDS011;35061;47.664;9.166;2023-07-13T14:55:28;4.30;;;2.33;;
18754;SDS011;35061;47.664;9.166;2023-07-13T14:57:56;2.60;;;2.40;;
18754;SDS011;35061;47.664;9.166;2023-07-13T15:00:25;2.17;;;1.98;;
18754;SDS011;35061;47.664;9.166;2023-07-13T15:02:53;2.65;;;2.15;;
18754;SDS011;35061;47.664;9.166;2023-07-13T15:05:27;2.58;;;2.20;;
18754;SDS011;35061;47.664;9.166;2023-07-13T15:07:57;3.40;;;2.30;;
18754;SDS011;35061;47.664;9.166;2023-07-13T15:10:31;3.00;;;2.20;;
18754;SDS011;35061;47.664;9.166;2023-07-13T15:13:01;2.35;;;2.15;;
18754;SDS011;35061;47.664;9.166;2023-07-13T15:15:42;2.37;;;1.75;;
18754;SDS011;35061;47.664;9.166;2023-07-13T15:18:13;2.47;;;1.87;;
18754;SDS011;35061;47.664;9.166;2023-07-13T15:20:44;2.80;;;2.10;;
18754;SDS011;35061;47.664;9.166;2023-07-13T15:23:15;2.47;;;2.17;;
18754;SDS011;35061;47.664;9.166;2023-07-13T15:25:44;3.12;;;1.90;;
18754;SDS011;35061;47.664;9.166;2023-07-13T15:28:13;2.45;;;2.25;;
18754;SDS011;35061;47.664;9.166;2023-07-13T15:30:46;2.00;;;1.80;;
18754;SDS011;35061;47.664;9.166;2023-07-13T15:33:25;2.30;;;2.10;;
18754;SDS011;35061;47.664;9.166;2023-07-13T15:35:55;3.35;;;2.10;;
18754;SDS011;35061;47.664;9.166;2023-07-13T15:38:27;2.58;;;1.90;;
18754;SDS011;35061;47.664;9.166;2023-07-13T15:40:57;3.12;;;2.30;;
18754;SDS011;35061;47.664;9.166;2023-07-13T15:43:25;2.70;;;2.47;;
18754;SDS011;35061;47.664;9.166;2023-07-13T15:45:53;2.10;;;1.90;;
18754;SDS011;35061;47.664;9.166;2023-07-13T15:48:23;2.30;;;2.10;;
18754;SDS011;35061;47.664;9.166;2023-07-13T15:50:52;3.83;;;2.22;;
18754;SDS011;35061;47.664;9.166;2023-07-13T15:53:24;2.55;;;1.80;;